LFMH

Saint-Étienne-Bouthéon Airport

Airport
ICAO code
LFMH
IATA Code
EBU
Summary
ICAO Region
EUR
ICAO Territory
Location

, Rhone-Alpes

Serving
St-Etienne
Elevation
1325 ft
Coordinates
45° 32' 26" N , 4° 17' 47" E
Metar
Observation
LFMH 280500Z AUTO 19007KT 170V230 9999 -RA ///TCU 10/06 Q1014
Station
St-Etienne Boutheon
Date/Time
2022-11-28 05:00:00
Wind direction
190°
Wind speed
07 kts
Lowest cloud amount
n/a
Temperature
10°C
Dew point
6°C
Humidity
76%
QNH
1014 hPa
Weather condition
light rain

Runways

Designator Length Width Surface Rops
18/36 2300 45 ASP Yes/Yes

Airport map

Aerial View

SKYbrary Partners:

Safety knowledge contributed by: